Time;durP1;ratioP1;P1;durP2;ratioP2;P2;SDS_P1;SDS_P2;PMS_P1;PMS_P2;Temp;Humidity;BMP_temperature;BMP_pressure;BME280_temperature;BME280_humidity;BME280_pressure;Samples;Min_cycle;Max_cycle;Signal;HPM_P1;HPM_P2
2024/01/15 00:02:12;;;;;;;;;;;;;;;22.16;17.78;96371.44;5073231;28;19971;-87
2024/01/15 00:04:39;;;;;;;;;;;;;;;21.95;17.89;96359.09;5067006;28;20031;-87
2024/01/15 00:07:05;;;;;;;;;;;;;;;22.39;17.47;96359.66;5073257;28;19917;-87
2024/01/15 00:09:31;;;;;;;;;;;;;;;22.36;17.54;96354.22;5073735;28;19928;-87
2024/01/15 00:11:58;;;;;;;;;;;;;;;22.31;17.44;96332.47;5073900;28;19978;-86
2024/01/15 00:14:24;;;;;;;;;;;;;;;22.03;17.61;96329.63;5069029;28;20376;-87
2024/01/15 00:16:51;;;;;;;;;;;;;;;22.31;17.24;96329.69;5075366;28;19921;-87
2024/01/15 00:19:17;;;;;;;;;;;;;;;22.19;17.67;96331.38;5057424;28;19916;-87
2024/01/15 00:21:44;;;;;;;;;;;;;;;22.45;17.25;96329.06;5084436;28;19920;-88
2024/01/15 00:24:10;;;;;;;;;;;;;;;22.38;16.96;96327.34;5096673;28;19916;-87
2024/01/15 00:26:36;;;;;;;;;;;;;;;21.69;18.01;96324.22;5079854;28;19917;-88
2024/01/15 00:29:03;;;;;;;;;;;;;;;21.75;19.85;96316.03;5077328;28;20376;-87
2024/01/15 00:31:29;;;;;;;;;;;;;;;21.96;17.73;96313.16;5070298;28;19916;-89
2024/01/15 00:33:56;;;;;;;;;;;;;;;22.19;17.43;96314.59;5075505;28;19975;-88
2024/01/15 00:36:22;;;;;;;;;;;;;;;21.76;17.87;96300.81;5076246;28;19931;-88
2024/01/15 00:38:48;;;;;;;;;;;;;;;21.13;18.34;96306.91;5075324;28;20011;-88
2024/01/15 00:41:14;;;;;;;;;;;;;;;20.99;18.14;96301.81;5086199;28;19974;-88
2024/01/15 00:43:40;;;;;;;;;;;;;;;21.47;18.03;96306.00;5060919;28;19928;-88
2024/01/15 00:46:06;;;;;;;;;;;;;;;21.16;18.35;96311.56;5080535;28;19912;-88
2024/01/15 00:48:32;;;;;;;;;;;;;;;22.09;17.24;96298.25;5086092;28;20281;-88
2024/01/15 00:50:58;;;;;;;;;;;;;;;22.45;16.85;96290.69;5085896;28;20421;-88
2024/01/15 00:53:25;;;;;;;;;;;;;;;22.16;17.25;96284.78;5085547;28;20041;-89
2024/01/15 00:55:51;;;;;;;;;;;;;;;21.61;17.77;96285.88;5075937;28;20015;-88
2024/01/15 00:58:18;;;;;;;;;;;;;;;20.30;18.53;96276.09;5088799;28;19955;-88
2024/01/15 01:00:44;;;;;;;;;;;;;;;20.79;18.23;96277.06;5073580;28;19920;-89
2024/01/15 01:03:10;;;;;;;;;;;;;;;21.09;18.00;96284.72;5076238;28;20791;-89
2024/01/15 01:05:37;;;;;;;;;;;;;;;21.45;17.47;96281.28;5082628;28;19921;-88
2024/01/15 01:08:03;;;;;;;;;;;;;;;21.19;17.79;96277.94;5081803;28;20030;-88
2024/01/15 01:10:30;;;;;;;;;;;;;;;21.47;17.46;96278.06;5089430;28;19916;-87
2024/01/15 01:12:56;;;;;;;;;;;;;;;21.34;18.65;96276.16;5096541;28;20364;-87
2024/01/15 01:15:22;;;;;;;;;;;;;;;21.50;17.61;96289.06;5077208;28;19966;-87
2024/01/15 01:17:48;;;;;;;;;;;;;;;21.25;18.17;96276.13;5070890;28;19963;-88
2024/01/15 01:20:15;;;;;;;;;;;;;;;21.09;18.19;96283.94;5090177;28;20458;-88
2024/01/15 01:22:41;;;;;;;;;;;;;;;20.25;18.88;96271.88;5076125;28;19967;-88
2024/01/15 01:25:07;;;;;;;;;;;;;;;20.93;18.32;96279.34;5086393;28;19920;-88
2024/01/15 01:27:33;;;;;;;;;;;;;;;20.25;18.86;96280.25;5079787;28;20019;-88
2024/01/15 01:29:59;;;;;;;;;;;;;;;20.57;18.49;96271.50;5060192;28;19999;-88
2024/01/15 01:32:25;;;;;;;;;;;;;;;21.12;18.22;96266.28;5094724;28;19920;-87
2024/01/15 01:34:51;;;;;;;;;;;;;;;22.19;17.27;96261.50;5075359;28;19986;-88
2024/01/15 01:37:18;;;;;;;;;;;;;;;22.80;16.67;96259.63;5056959;28;19924;-87
2024/01/15 01:39:44;;;;;;;;;;;;;;;21.96;17.57;96256.50;5083424;28;19927;-88
2024/01/15 01:42:10;;;;;;;;;;;;;;;20.61;18.49;96258.19;5078845;28;19969;-88
2024/01/15 01:44:36;;;;;;;;;;;;;;;19.78;19.51;96257.16;5059560;28;19921;-87
2024/01/15 01:47:03;;;;;;;;;;;;;;;20.32;18.59;96246.53;5078741;28;19971;-88
2024/01/15 01:49:29;;;;;;;;;;;;;;;20.90;18.20;96249.56;5095142;28;20290;-87
2024/01/15 01:51:59;;;;;;;;;;;;;;;19.45;20.01;96236.41;5076268;28;19916;-88
2024/01/15 01:54:28;;;;;;;;;;;;;;;20.12;19.16;96234.88;5077756;28;20456;-88
2024/01/15 01:56:54;;;;;;;;;;;;;;;20.75;18.42;96223.41;5089385;28;19970;-88
2024/01/15 01:59:20;;;;;;;;;;;;;;;21.81;17.44;96221.97;5078878;28;19916;-87
2024/01/15 02:01:48;;;;;;;;;;;;;;;21.27;18.34;96209.44;5077639;28;19963;-88
2024/01/15 02:04:14;;;;;;;;;;;;;;;21.08;19.50;96224.56;5061065;28;20002;-88
2024/01/15 02:06:40;;;;;;;;;;;;;;;21.53;17.86;96212.00;5076636;28;19917;-88
2024/01/15 02:09:07;;;;;;;;;;;;;;;21.14;18.16;96205.97;5073630;28;19934;-88
2024/01/15 02:11:33;;;;;;;;;;;;;;;21.79;17.57;96208.47;5082334;28;19931;-88
2024/01/15 02:14:00;;;;;;;;;;;;;;;22.35;17.05;96208.06;5074934;28;20399;-88
2024/01/15 02:16:26;;;;;;;;;;;;;;;22.09;17.27;96198.44;5077040;28;20311;-87
2024/01/15 02:18:52;;;;;;;;;;;;;;;21.89;17.76;96200.91;5065265;28;20015;-87
2024/01/15 02:21:18;;;;;;;;;;;;;;;21.68;17.74;96190.63;5072772;28;19974;-87
2024/01/15 02:23:44;;;;;;;;;;;;;;;21.67;17.77;96194.66;5079815;28;19968;-86
2024/01/15 02:26:10;;;;;;;;;;;;;;;21.14;18.64;96197.59;5066480;28;20303;-87
2024/01/15 02:28:36;;;;;;;;;;;;;;;20.64;18.63;96186.81;5080059;28;19924;-88
2024/01/15 02:31:02;;;;;;;;;;;;;;;20.01;19.28;96184.34;5055799;28;19931;-88
2024/01/15 02:33:28;;;;;;;;;;;;;;;20.71;18.53;96186.53;5071199;28;20021;-87
2024/01/15 02:35:54;;;;;;;;;;;;;;;21.00;18.14;96183.41;5072138;28;19925;-87
2024/01/15 02:38:20;;;;;;;;;;;;;;;21.15;18.27;96171.25;5063784;28;19920;-87
2024/01/15 02:40:46;;;;;;;;;;;;;;;19.66;19.53;96175.22;5085520;28;19925;-88
2024/01/15 02:43:13;;;;;;;;;;;;;;;20.84;18.58;96164.91;5078377;28;19920;-87
2024/01/15 02:45:39;;;;;;;;;;;;;;;21.71;17.56;96156.94;5063487;28;19917;-88
2024/01/15 02:48:06;;;;;;;;;;;;;;;21.90;17.37;96158.53;5071605;28;19921;-87
2024/01/15 02:50:32;;;;;;;;;;;;;;;20.91;18.05;96149.91;5051247;28;19921;-87
2024/01/15 02:52:58;;;;;;;;;;;;;;;21.66;17.37;96153.97;5065692;28;19928;-87
2024/01/15 02:55:24;;;;;;;;;;;;;;;22.05;17.12;96147.53;5084626;28;19928;-87
2024/01/15 02:57:50;;;;;;;;;;;;;;;21.58;17.37;96144.38;5080207;28;19931;-87
2024/01/15 03:00:16;;;;;;;;;;;;;;;21.45;17.90;96138.91;5056102;28;19920;-87
2024/01/15 03:02:44;;;;;;;;;;;;;;;21.40;17.51;96141.56;5072501;28;19973;-86
2024/01/15 03:05:10;;;;;;;;;;;;;;;21.28;17.77;96144.00;5082292;28;19947;-87
2024/01/15 03:07:36;;;;;;;;;;;;;;;21.63;17.28;96138.16;5076250;28;19920;-87
2024/01/15 03:10:02;;;;;;;;;;;;;;;20.47;18.52;96135.28;5073419;28;19928;-86
2024/01/15 03:12:28;;;;;;;;;;;;;;;19.97;19.18;96148.28;5065083;28;19931;-86
2024/01/15 03:14:54;;;;;;;;;;;;;;;19.71;19.69;96138.47;5074624;28;19920;-86
2024/01/15 03:17:20;;;;;;;;;;;;;;;18.47;21.99;96144.50;5076314;28;19920;-87
2024/01/15 03:19:46;;;;;;;;;;;;;;;19.14;20.13;96134.03;5073345;28;20376;-87
2024/01/15 03:22:12;;;;;;;;;;;;;;;19.90;19.17;96123.47;5067047;28;19927;-87
2024/01/15 03:24:39;;;;;;;;;;;;;;;20.52;18.50;96131.91;5068300;28;19930;-87
2024/01/15 03:27:05;;;;;;;;;;;;;;;21.44;17.65;96136.59;5069980;28;19936;-87
2024/01/15 03:29:31;;;;;;;;;;;;;;;21.18;17.85;96139.66;5058313;28;19936;-86
2024/01/15 03:31:57;;;;;;;;;;;;;;;21.49;17.85;96135.97;5071963;28;19927;-87
2024/01/15 03:34:23;;;;;;;;;;;;;;;20.75;18.32;96139.75;5050892;28;19924;-87
2024/01/15 03:36:49;;;;;;;;;;;;;;;20.54;18.47;96140.59;5081399;28;19916;-88
2024/01/15 03:39:15;;;;;;;;;;;;;;;21.21;18.08;96137.94;5061189;28;19921;-88
2024/01/15 03:41:41;;;;;;;;;;;;;;;21.54;17.58;96135.38;5058497;28;19920;-88
2024/01/15 03:44:07;;;;;;;;;;;;;;;21.28;18.01;96126.50;5059904;28;19916;-87
2024/01/15 03:46:33;;;;;;;;;;;;;;;21.16;17.98;96121.81;5065549;28;19924;-88
2024/01/15 03:48:59;;;;;;;;;;;;;;;20.83;18.85;96110.38;5069184;28;19931;-87
2024/01/15 03:51:25;;;;;;;;;;;;;;;21.33;17.71;96106.34;5078765;28;19931;-87
2024/01/15 03:53:51;;;;;;;;;;;;;;;21.74;17.26;96111.31;5072293;28;20288;-85
2024/01/15 03:56:17;;;;;;;;;;;;;;;21.85;17.13;96102.50;5063809;28;20387;-85
2024/01/15 03:58:43;;;;;;;;;;;;;;;21.63;17.17;96099.06;5079531;28;19927;-85
2024/01/15 04:01:10;;;;;;;;;;;;;;;20.71;18.09;96097.28;5085278;28;19917;-86
2024/01/15 04:03:36;;;;;;;;;;;;;;;21.51;17.40;96097.19;5081997;28;20354;-86
2024/01/15 04:06:02;;;;;;;;;;;;;;;21.28;17.46;96087.41;5083281;28;19928;-86
2024/01/15 04:08:28;;;;;;;;;;;;;;;21.64;17.21;96086.63;5080561;28;19932;-86
2024/01/15 04:10:55;;;;;;;;;;;;;;;21.21;17.49;96084.91;5072868;28;20284;-86
2024/01/15 04:13:21;;;;;;;;;;;;;;;21.54;17.28;96079.53;5080281;28;19939;-86
2024/01/15 04:15:47;;;;;;;;;;;;;;;21.54;17.39;96074.69;5055008;28;19928;-86
2024/01/15 04:18:13;;;;;;;;;;;;;;;21.27;17.39;96069.88;5073569;28;19927;-87
2024/01/15 04:20:39;;;;;;;;;;;;;;;21.38;17.18;96074.25;5078773;28;19921;-87
2024/01/15 04:23:05;;;;;;;;;;;;;;;21.75;17.16;96073.00;5053608;28;19920;-87
2024/01/15 04:25:31;;;;;;;;;;;;;;;22.03;16.97;96063.38;5075604;28;20287;-87
2024/01/15 04:27:57;;;;;;;;;;;;;;;22.08;16.65;96068.31;5069902;28;19927;-87
2024/01/15 04:30:24;;;;;;;;;;;;;;;21.71;17.10;96059.19;5088398;28;20008;-87
2024/01/15 04:32:50;;;;;;;;;;;;;;;21.99;16.54;96068.34;5054882;28;19921;-87
2024/01/15 04:35:16;;;;;;;;;;;;;;;22.12;16.70;96063.34;5084322;28;20406;-87
2024/01/15 04:37:42;;;;;;;;;;;;;;;22.29;16.64;96058.94;5060907;28;20024;-88
2024/01/15 04:40:09;;;;;;;;;;;;;;;22.38;16.38;96052.56;5065178;28;19927;-88
2024/01/15 04:42:35;;;;;;;;;;;;;;;22.65;16.10;96055.28;5070024;28;19929;-87
2024/01/15 04:45:01;;;;;;;;;;;;;;;21.05;17.54;96058.06;5065729;28;19925;-87
2024/01/15 04:47:27;;;;;;;;;;;;;;;21.43;17.24;96057.63;5057051;28;20027;-87
2024/01/15 04:49:53;;;;;;;;;;;;;;;21.77;17.20;96048.16;5051351;28;19960;-87
2024/01/15 04:52:19;;;;;;;;;;;;;;;21.50;17.14;96048.94;5058902;28;19928;-88
2024/01/15 04:54:45;;;;;;;;;;;;;;;21.01;17.50;96054.63;5079220;28;19924;-88
2024/01/15 04:57:11;;;;;;;;;;;;;;;21.68;17.08;96062.16;5081197;28;20011;-87
2024/01/15 04:59:37;;;;;;;;;;;;;;;22.23;16.61;96052.44;5076220;28;19920;-87
2024/01/15 05:02:03;;;;;;;;;;;;;;;22.32;16.51;96044.03;5072346;28;19921;-87
2024/01/15 05:04:30;;;;;;;;;;;;;;;22.10;16.48;96043.47;5072620;28;20015;-87
2024/01/15 05:06:56;;;;;;;;;;;;;;;20.93;17.75;96045.00;5071324;28;19916;-87
2024/01/15 05:09:22;;;;;;;;;;;;;;;21.49;17.17;96052.22;5076112;28;19944;-87
2024/01/15 05:11:48;;;;;;;;;;;;;;;21.45;17.82;96048.81;5071338;28;19921;-88
2024/01/15 05:14:14;;;;;;;;;;;;;;;21.18;18.04;96035.59;5058148;28;19928;-87
2024/01/15 05:16:40;;;;;;;;;;;;;;;20.43;18.73;96045.44;5067473;28;19927;-86
2024/01/15 05:19:07;;;;;;;;;;;;;;;21.33;17.60;96039.34;5069149;28;20284;-87
2024/01/15 05:21:33;;;;;;;;;;;;;;;21.20;17.71;96038.69;5064127;28;19920;-86
2024/01/15 05:23:59;;;;;;;;;;;;;;;20.32;21.82;96040.31;5064812;28;19938;-84
2024/01/15 05:26:25;;;;;;;;;;;;;;;20.61;18.19;96031.56;5070630;28;19927;-85
2024/01/15 05:28:51;;;;;;;;;;;;;;;20.63;18.25;96034.69;5063638;28;20306;-88
2024/01/15 05:31:17;;;;;;;;;;;;;;;20.07;18.72;96031.34;5075509;28;19921;-87
2024/01/15 05:33:43;;;;;;;;;;;;;;;20.46;18.53;96028.59;5071293;28;19921;-88
2024/01/15 05:36:09;;;;;;;;;;;;;;;20.05;18.81;96023.41;5059053;28;19924;-87
2024/01/15 05:38:35;;;;;;;;;;;;;;;19.74;19.15;96028.19;5069726;28;19927;-87
2024/01/15 05:41:01;;;;;;;;;;;;;;;19.80;19.38;96015.22;5058911;28;19921;-88
2024/01/15 05:43:27;;;;;;;;;;;;;;;19.98;19.01;96010.53;5077023;28;19920;-89
2024/01/15 05:45:53;;;;;;;;;;;;;;;19.47;19.38;96011.28;5058240;28;19942;-88
2024/01/15 05:48:19;;;;;;;;;;;;;;;19.43;19.71;96022.56;5077187;28;19931;-87
2024/01/15 05:50:45;;;;;;;;;;;;;;;18.89;20.08;96008.16;5072874;28;19967;-87
2024/01/15 05:53:11;;;;;;;;;;;;;;;18.85;19.84;96019.41;5073083;28;20319;-85
2024/01/15 05:55:38;;;;;;;;;;;;;;;18.54;20.41;96016.47;5074533;28;19928;-89
2024/01/15 05:58:04;;;;;;;;;;;;;;;20.27;18.80;96015.03;5074735;28;20372;-88
2024/01/15 06:00:30;;;;;;;;;;;;;;;19.73;19.44;96010.72;5075350;28;19916;-87
2024/01/15 06:02:56;;;;;;;;;;;;;;;20.48;18.84;96006.63;5093553;28;20384;-87
2024/01/15 06:05:22;;;;;;;;;;;;;;;20.48;18.59;96005.84;5070535;28;19920;-87
2024/01/15 06:07:48;;;;;;;;;;;;;;;20.57;18.50;96011.44;5074316;28;20063;-88
2024/01/15 06:10:14;;;;;;;;;;;;;;;20.26;18.98;96011.47;5076078;28;19916;-87
2024/01/15 06:12:43;;;;;;;;;;;;;;;20.48;18.72;96006.63;5085758;28;19923;-88
2024/01/15 06:15:09;;;;;;;;;;;;;;;20.78;18.38;96004.97;5095870;28;20402;-89
2024/01/15 06:17:35;;;;;;;;;;;;;;;19.79;19.49;96020.03;5094848;28;19923;-88
2024/01/15 06:20:01;;;;;;;;;;;;;;;19.35;20.09;96026.78;5076658;28;19962;-89
2024/01/15 06:22:27;;;;;;;;;;;;;;;20.18;19.09;96024.13;5080291;28;19928;-89
2024/01/15 06:24:53;;;;;;;;;;;;;;;20.57;19.31;96031.72;5085966;28;20334;-89
2024/01/15 06:27:19;;;;;;;;;;;;;;;19.39;20.15;96037.84;5080124;28;19970;-89
2024/01/15 06:29:48;;;;;;;;;;;;;;;20.39;18.80;96036.47;5070343;28;19974;-89
2024/01/15 06:32:14;;;;;;;;;;;;;;;20.02;19.52;96043.06;5063582;28;20310;-90
2024/01/15 06:34:40;;;;;;;;;;;;;;;20.59;18.72;96031.25;5086820;28;20015;-88
2024/01/15 06:37:06;;;;;;;;;;;;;;;20.60;18.83;96036.41;5074732;28;20027;-88
2024/01/15 06:39:32;;;;;;;;;;;;;;;20.34;19.06;96037.84;5073002;28;19920;-89
2024/01/15 06:41:58;;;;;;;;;;;;;;;20.96;18.65;96032.91;5075434;28;19920;-88
2024/01/15 06:44:24;;;;;;;;;;;;;;;21.07;18.31;96033.28;5060533;28;19921;-89
2024/01/15 06:46:51;;;;;;;;;;;;;;;21.22;18.08;96034.22;5061194;28;19929;-88
2024/01/15 06:49:17;;;;;;;;;;;;;;;21.02;18.33;96041.44;5070185;28;19966;-88
2024/01/15 06:51:43;;;;;;;;;;;;;;;20.64;18.48;96027.88;5074147;28;20376;-88
2024/01/15 06:54:09;;;;;;;;;;;;;;;20.90;18.58;96037.56;5067420;28;19921;-88
2024/01/15 06:56:35;;;;;;;;;;;;;;;21.88;17.58;96040.09;5072032;28;19971;-88
2024/01/15 06:59:02;;;;;;;;;;;;;;;22.09;17.39;96030.75;5064903;28;20408;-90
2024/01/15 07:01:29;;;;;;;;;;;;;;;21.75;17.62;96037.44;5074959;28;19919;-88
2024/01/15 07:03:55;;;;;;;;;;;;;;;21.56;17.89;96035.94;5088621;28;19920;-88
2024/01/15 07:06:21;;;;;;;;;;;;;;;21.52;18.06;96034.53;5068077;28;19925;-88
2024/01/15 07:08:47;;;;;;;;;;;;;;;20.08;19.44;96044.00;5077060;28;20015;-88
2024/01/15 07:11:13;;;;;;;;;;;;;;;21.01;18.32;96042.66;5085664;28;20475;-88
2024/01/15 07:13:39;;;;;;;;;;;;;;;21.17;18.33;96045.19;5083039;28;20015;-88
2024/01/15 07:16:05;;;;;;;;;;;;;;;21.51;18.08;96044.94;5077458;28;20027;-87
2024/01/15 07:18:31;;;;;;;;;;;;;;;20.70;18.64;96045.53;5070850;28;20314;-88
2024/01/15 07:20:57;;;;;;;;;;;;;;;20.15;19.13;96040.97;5073632;28;20015;-87
2024/01/15 07:23:23;;;;;;;;;;;;;;;18.85;20.95;96049.22;5073757;28;19923;-88
2024/01/15 07:25:49;;;;;;;;;;;;;;;19.73;19.77;96046.13;5075394;28;19920;-87
2024/01/15 07:28:15;;;;;;;;;;;;;;;20.12;19.29;96061.38;5075632;28;19921;-86
2024/01/15 07:30:41;;;;;;;;;;;;;;;20.79;18.45;96056.75;5082477;28;19922;-87
2024/01/15 07:33:07;;;;;;;;;;;;;;;20.05;19.43;96047.72;5093165;28;19995;-87
2024/01/15 07:35:33;;;;;;;;;;;;;;;19.87;20.54;96059.53;5070019;28;20030;-86
2024/01/15 07:37:59;;;;;;;;;;;;;;;21.15;18.43;96059.63;5073892;28;19917;-86
2024/01/15 07:40:25;;;;;;;;;;;;;;;21.04;19.13;96042.56;5074035;28;20063;-87
2024/01/15 07:42:52;;;;;;;;;;;;;;;20.29;18.82;96066.31;5073932;28;20394;-86
2024/01/15 07:45:18;;;;;;;;;;;;;;;21.21;18.02;96079.34;5073733;28;19943;-86
2024/01/15 07:47:44;;;;;;;;;;;;;;;20.86;18.60;96078.78;5075673;28;19921;-86
2024/01/15 07:50:10;;;;;;;;;;;;;;;21.03;18.54;96085.63;5084440;28;19917;-87
2024/01/15 07:52:36;;;;;;;;;;;;;;;21.39;18.05;96075.78;5076002;28;19923;-86
2024/01/15 07:55:05;;;;;;;;;;;;;;;22.56;17.34;96086.06;5073363;28;20295;-86
2024/01/15 07:57:31;;;;;;;;;;;;;;;21.61;17.91;96085.56;5087018;28;19974;-86
2024/01/15 07:59:57;;;;;;;;;;;;;;;20.32;18.92;96084.13;5080810;28;19916;-87
2024/01/15 08:02:23;;;;;;;;;;;;;;;19.99;19.71;96095.66;5073225;28;20339;-87
2024/01/15 08:04:49;;;;;;;;;;;;;;;20.39;19.23;96089.41;5088343;28;19955;-86
2024/01/15 08:07:15;;;;;;;;;;;;;;;20.24;19.16;96093.97;5090740;28;19927;-86
2024/01/15 08:09:42;;;;;;;;;;;;;;;20.79;19.07;96073.47;5075017;28;19948;-86
2024/01/15 08:12:08;;;;;;;;;;;;;;;20.02;19.40;96080.81;5093569;28;19923;-86
2024/01/15 08:14:34;;;;;;;;;;;;;;;20.02;19.55;96086.38;5093422;28;19916;-87
2024/01/15 08:17:01;;;;;;;;;;;;;;;18.93;21.46;96089.44;5088773;28;19921;-86
2024/01/15 08:19:27;;;;;;;;;;;;;;;19.76;19.79;96103.69;5073016;28;19920;-88
2024/01/15 08:21:53;;;;;;;;;;;;;;;20.40;19.50;96097.31;5083902;28;19920;-87
2024/01/15 08:24:19;;;;;;;;;;;;;;;19.87;20.06;96101.28;5092479;28;20363;-88
2024/01/15 08:26:45;;;;;;;;;;;;;;;21.04;18.74;96106.75;5074389;28;19916;-87
2024/01/15 08:29:11;;;;;;;;;;;;;;;21.64;18.56;96104.19;5073573;28;19921;-87
2024/01/15 08:31:37;;;;;;;;;;;;;;;20.83;19.28;96104.00;5090217;28;19920;-87
2024/01/15 08:34:03;;;;;;;;;;;;;;;20.40;19.60;96104.88;5067936;28;20294;-87
2024/01/15 08:36:30;;;;;;;;;;;;;;;20.81;19.55;96112.84;5053056;28;19921;-87
2024/01/15 08:38:56;;;;;;;;;;;;;;;20.82;19.25;96117.16;5074706;28;19962;-87
2024/01/15 08:41:23;;;;;;;;;;;;;;;20.92;19.34;96106.81;5092406;28;20299;-87
2024/01/15 08:43:49;;;;;;;;;;;;;;;21.65;18.67;96116.13;5077277;28;19921;-87
2024/01/15 08:46:15;;;;;;;;;;;;;;;22.23;17.96;96108.34;5076999;28;20284;-87
2024/01/15 08:48:41;;;;;;;;;;;;;;;21.44;18.62;96111.47;5078040;28;19975;-87
2024/01/15 08:51:07;;;;;;;;;;;;;;;22.23;18.07;96110.38;5038684;28;19913;-87
2024/01/15 08:53:33;;;;;;;;;;;;;;;21.51;18.72;96106.34;5056632;28;19917;-87
2024/01/15 08:55:59;;;;;;;;;;;;;;;20.99;19.47;96104.53;5070421;28;19917;-87
2024/01/15 08:58:25;;;;;;;;;;;;;;;21.51;18.76;96109.16;5076694;28;19948;-87
2024/01/15 09:00:51;;;;;;;;;;;;;;;20.77;19.01;96103.81;5077332;28;20387;-87
2024/01/15 09:03:18;;;;;;;;;;;;;;;20.80;19.40;96118.84;5070811;28;19916;-87
2024/01/15 09:05:43;;;;;;;;;;;;;;;20.46;19.47;96112.22;5076906;28;20299;-87
2024/01/15 09:08:10;;;;;;;;;;;;;;;21.01;18.85;96116.00;5073134;28;20067;-87
2024/01/15 09:10:36;;;;;;;;;;;;;;;22.39;18.09;96113.59;5055452;28;19999;-87
2024/01/15 09:13:04;;;;;;;;;;;;;;;22.73;17.66;96118.03;5057061;28;19955;-87
2024/01/15 09:15:30;;;;;;;;;;;;;;;22.03;18.07;96122.06;5037969;28;19921;-87
2024/01/15 09:17:58;;;;;;;;;;;;;;;21.53;18.60;96120.63;5056025;28;19939;-87
2024/01/15 09:20:25;;;;;;;;;;;;;;;21.89;18.36;96125.50;5055355;28;20292;-88
2024/01/15 09:22:51;;;;;;;;;;;;;;;21.48;18.77;96123.25;5054701;28;19927;-87
2024/01/15 09:25:18;;;;;;;;;;;;;;;21.06;19.02;96125.81;5056253;28;20015;-87
2024/01/15 09:27:44;;;;;;;;;;;;;;;20.11;20.28;96126.69;5056200;28;19916;-88
2024/01/15 09:30:11;;;;;;;;;;;;;;;19.58;20.12;96123.78;5056710;28;20331;-87
2024/01/15 09:32:37;;;;;;;;;;;;;;;19.58;21.23;96126.59;5055892;28;19921;-87
2024/01/15 09:35:03;;;;;;;;;;;;;;;18.82;21.61;96125.16;5036113;28;19929;-87
2024/01/15 09:37:29;;;;;;;;;;;;;;;18.46;22.46;96123.50;5035973;28;19964;-86
2024/01/15 09:39:55;;;;;;;;;;;;;;;19.45;21.24;96125.06;5041601;28;19936;-86
2024/01/15 09:42:23;;;;;;;;;;;;;;;20.52;20.23;96118.75;5050395;28;19925;-86
2024/01/15 09:44:49;;;;;;;;;;;;;;;20.70;19.83;96115.25;5055680;28;19921;-87
2024/01/15 09:47:16;;;;;;;;;;;;;;;20.13;21.24;96118.66;5056185;28;19920;-87
2024/01/15 09:49:42;;;;;;;;;;;;;;;19.97;20.55;96114.84;5055275;28;19921;-86
2024/01/15 09:52:10;;;;;;;;;;;;;;;19.55;26.08;96107.25;5055490;28;19920;-87
2024/01/15 09:54:36;;;;;;;;;;;;;;;19.60;20.70;96126.94;5052904;28;19921;-87
2024/01/15 09:57:03;;;;;;;;;;;;;;;18.72;22.64;96131.84;5055767;28;19928;-88
2024/01/15 09:59:29;;;;;;;;;;;;;;;18.26;22.64;96111.78;5037474;28;19921;-88
2024/01/15 10:01:56;;;;;;;;;;;;;;;18.89;21.89;96127.72;5055081;28;20007;-86
2024/01/15 10:04:23;;;;;;;;;;;;;;;18.55;22.52;96125.63;5054910;28;19971;-87
2024/01/15 10:06:50;;;;;;;;;;;;;;;20.64;20.37;96120.66;5068612;28;20016;-86
2024/01/15 10:09:17;;;;;;;;;;;;;;;21.93;18.98;96112.13;5072264;28;19952;-86
2024/01/15 10:11:44;;;;;;;;;;;;;;;22.11;18.68;96108.53;5055204;28;19971;-86
2024/01/15 10:14:13;;;;;;;;;;;;;;;22.56;18.20;96114.03;5040693;28;19924;-87
2024/01/15 10:16:40;;;;;;;;;;;;;;;23.03;17.34;96110.59;5075140;28;19967;-87
2024/01/15 10:19:06;;;;;;;;;;;;;;;21.41;19.05;96120.75;5075140;28;20015;-87
2024/01/15 10:21:34;;;;;;;;;;;;;;;19.95;21.29;96117.28;5074631;28;20011;-87
2024/01/15 10:24:01;;;;;;;;;;;;;;;20.33;19.66;96105.16;5074566;28;19956;-87
2024/01/15 10:26:27;;;;;;;;;;;;;;;20.94;19.96;96107.91;5074037;28;19920;-87
2024/01/15 10:28:53;;;;;;;;;;;;;;;21.29;19.21;96117.66;5074859;28;19920;-87
2024/01/15 10:31:22;;;;;;;;;;;;;;;21.77;19.13;96110.41;5070727;28;19971;-87
2024/01/15 10:33:48;;;;;;;;;;;;;;;21.84;18.95;96107.31;5053443;28;19921;-88
2024/01/15 10:36:15;;;;;;;;;;;;;;;22.24;19.35;96109.13;5056099;28;19932;-88
2024/01/15 10:38:42;;;;;;;;;;;;;;;21.93;18.53;96107.31;5074474;28;19972;-87
2024/01/15 10:41:08;;;;;;;;;;;;;;;22.46;18.38;96107.69;5080883;28;19919;-87
2024/01/15 10:43:34;;;;;;;;;;;;;;;21.98;18.50;96103.13;5074458;28;19924;-87
2024/01/15 10:46:01;;;;;;;;;;;;;;;22.49;18.20;96109.53;5073698;28;20287;-87
2024/01/15 10:48:28;;;;;;;;;;;;;;;21.96;18.46;96100.03;5074666;28;19917;-87
2024/01/15 10:50:54;;;;;;;;;;;;;;;21.22;19.21;96109.56;5056572;28;20280;-88
2024/01/15 10:53:21;;;;;;;;;;;;;;;21.35;19.20;96098.28;5074380;28;19912;-88
2024/01/15 10:55:51;;;;;;;;;;;;;;;21.59;19.16;96104.78;5073392;28;20392;-87
2024/01/15 10:58:18;;;;;;;;;;;;;;;22.34;18.20;96100.25;5073444;28;19927;-88
2024/01/15 11:00:44;;;;;;;;;;;;;;;22.45;18.14;96110.94;5074047;28;19920;-88
2024/01/15 11:03:10;;;;;;;;;;;;;;;22.28;18.35;96112.53;5074635;28;19921;-87
2024/01/15 11:05:38;;;;;;;;;;;;;;;22.46;18.08;96090.91;5074179;28;19955;-87
2024/01/15 11:08:08;;;;;;;;;;;;;;;22.87;18.04;96094.19;5055679;28;19920;-87
2024/01/15 11:10:41;;;;;;;;;;;;;;;22.43;18.07;96089.03;5073861;28;19916;-88
2024/01/15 11:16:12;;;;;;;;;;;;;;;22.05;18.31;96097.22;5074083;28;20479;-87
2024/01/15 11:18:43;;;;;;;;;;;;;;;22.38;17.77;96086.88;5073379;28;20280;-88
2024/01/15 11:21:17;;;;;;;;;;;;;;;22.93;17.54;96093.06;5074082;28;20335;-88
2024/01/15 11:23:47;;;;;;;;;;;;;;;23.56;16.66;96089.13;5074065;28;19923;-88
2024/01/15 11:26:13;;;;;;;;;;;;;;;;;;5073738;28;19921;-88
2024/01/15 11:28:47;;;;;;;;;;;;;;;22.98;17.35;96083.25;5071921;28;20016;-87
2024/01/15 11:31:13;;;;;;;;;;;;;;;23.00;16.85;96077.94;5069966;28;19920;-88
2024/01/15 11:33:47;;;;;;;;;;;;;;;21.37;18.05;96081.06;5074023;28;19960;-87
2024/01/15 11:36:13;;;;;;;;;;;;;;;19.47;19.14;96076.09;5074020;28;19921;-89
2024/01/15 11:38:39;;;;;;;;;;;;;;;18.19;20.86;96077.88;5074005;28;20368;-88
2024/01/15 11:41:18;;;;;;;;;;;;;;;17.97;22.40;96093.63;5073824;28;19920;-87
2024/01/15 11:43:44;;;;;;;;;;;;;;;17.44;26.34;96106.94;5072543;28;19917;-87
2024/01/15 11:46:12;;;;;;;;;;;;;;;17.67;24.93;96083.75;5073441;28;20269;-87
2024/01/15 11:48:43;;;;;;;;;;;;;;;17.16;21.23;96064.13;5073405;28;19920;-88
2024/01/15 11:51:10;;;;;;;;;;;;;;;18.17;20.06;96083.88;5072609;28;19925;-87
2024/01/15 11:53:40;;;;;;;;;;;;;;;18.03;21.73;96089.84;5073306;28;20018;-87
2024/01/15 11:56:11;;;;;;;;;;;;;;;17.77;22.58;96102.91;5073153;28;20007;-88
2024/01/15 11:58:38;;;;;;;;;;;;;;;18.02;23.14;96093.84;5071823;28;20368;-87
2024/01/15 12:01:04;;;;;;;;;;;;;;;18.30;20.45;96086.66;5053638;28;19956;-87
2024/01/15 12:03:32;;;;;;;;;;;;;;;19.47;19.46;96092.78;5051627;28;19923;-87
2024/01/15 12:05:59;;;;;;;;;;;;;;;18.57;21.82;96089.81;5073201;28;19924;-88
2024/01/15 12:08:27;;;;;;;;;;;;;;;19.36;19.42;96105.50;5073673;28;19928;-88
2024/01/15 12:10:53;;;;;;;;;;;;;;;18.55;19.91;96086.72;5073963;28;20548;-88
2024/01/15 12:13:20;;;;;;;;;;;;;;;19.83;18.95;96087.50;5072598;28;19978;-88
2024/01/15 12:15:46;;;;;;;;;;;;;;;18.33;24.57;96086.56;5074459;28;19939;-87
2024/01/15 12:18:14;;;;;;;;;;;;;;;16.40;21.88;96070.38;5073911;28;20317;-89
2024/01/15 12:20:42;;;;;;;;;;;;;;;16.40;22.62;96100.84;5055962;28;19917;-89
2024/01/15 12:23:08;;;;;;;;;;;;;;;17.21;21.37;96098.84;5054783;28;20305;-88
2024/01/15 12:25:34;;;;;;;;;;;;;;;17.69;21.73;96086.91;5074177;28;19963;-89
2024/01/15 12:28:01;;;;;;;;;;;;;;;17.46;20.54;96095.41;5067002;28;19971;-89
2024/01/15 12:30:27;;;;;;;;;;;;;;;19.19;18.86;96088.94;5059521;28;20008;-89
2024/01/15 12:32:54;;;;;;;;;;;;;;;18.15;22.72;96086.34;5076650;28;19964;-90
2024/01/15 12:35:20;;;;;;;;;;;;;;;18.27;20.13;96091.13;5076358;28;20027;-89
2024/01/15 12:37:47;;;;;;;;;;;;;;;18.35;19.52;96078.56;5074395;28;20007;-89
2024/01/15 12:40:14;;;;;;;;;;;;;;;18.69;20.02;96085.47;5080575;28;19916;-90
2024/01/15 12:42:40;;;;;;;;;;;;;;;19.03;19.75;96074.41;5094456;28;19917;-89
2024/01/15 12:45:08;;;;;;;;;;;;;;;19.02;19.46;96078.44;5082118;28;19917;-89
2024/01/15 12:47:34;;;;;;;;;;;;;;;18.74;21.28;96084.94;5079394;28;19955;-90